METAR AND TAF INFORMATION
METAR FOR ESNQ
ADDS - METARS form results

(0043 UTC 23 February 2019)
Data provider http://aviationweather.gov/metar/data/
 
METAR text: ESNQ 230020Z AUTO 22010KT 9999 -RA FEW023/// BKN045/// BKN082/// 04/01 Q1009 REUP
Conditions at: ESNQ (KIRUNA AIRPORT , SE) observed 0020 UTC 23 February 2019
Temperature: 4.0°C (39°F)
Dewpoint: 1.0°C (34°F) [RH = 81%]
Pressure (altimeter): 29.79 inches Hg (1009.0 mb)
Winds: from the SW (220 degrees) at 12 MPH (10 knots; 5.1 m/s)
Visibility: 6 or more miles (10+ km)
Ceiling: 4500 feet AGL
Clouds: few clouds at 2300 feet AGL
broken clouds at 4500 feet AGL
broken clouds at 8200 feet AGL
Weather: -RA  (light rain)

METAR text: ESNQ 222350Z AUTO 23011KT 9999 SCT061/// BKN096/// 04/01 Q1010
Conditions at: ESNQ (KIRUNA AIRPORT , SE) observed 2350 UTC 22 February 2019
Temperature: 4.0°C (39°F)
Dewpoint: 1.0°C (34°F) [RH = 81%]
Pressure (altimeter): 29.82 inches Hg (1010.0 mb)
Winds: from the SW (230 degrees) at 13 MPH (11 knots; 5.7 m/s)
Visibility: 6 or more miles (10+ km)
Ceiling: 9600 feet AGL
Clouds: scattered clouds at 6100 feet AGL
broken clouds at 9600 feet AGL
Weather: no significant weather observed at this time

Forecast for: ESNQ (KIRUNA AIRPORT , SE)
Text: TAF ESNQ 222030Z 2221/2223 25008KT CAVOK
Forecast period: 2100 to 2300 UTC 22 February 2019
Forecast type: FROM: standard forecast or significant change
Winds: from the WSW (250 degrees) at 9 MPH (8 knots; 4.1 m/s)
Visibility: 6 or more miles 10+ km)
Ceiling: unknown
Clouds: missing
Weather: NSW  (no significant weather)

 AIRPORT MAP

 RUNWAY INFORMATION
Runway 03 Runway length 8209 ft Runway width 148 ft
Runway elevation 1508 ft Runway displaced threshold 0 ft Runway heading 34
Runway 21 Runway length 8209 ft Runway width 148 ft
Runway elevation 1432 ft Runway displaced threshold 0 ft Runway heading 214

 AIRPORT FREQUENCIES
Type TWR Name TWR Frequency 130.15 MHZ

 AIRPORT NEAR NAVIGATION AIDS
Type VOR-DME Name Kiruna Frequency 115200 KHZ
Type NDB Name Kiruna Frequency 360 KHZ


... ... ... ... ... ...

© Copyright 2017 All Rights Reserved. Virtual NATO is in no way affiliated with NATO or any of the NATO Members

Virtual NATO is a volunteer not for profit group of friends with the common interest in promoting enjoyment and education through the simulation of military operations and procedure through the use of operating standards within several flight simulation platforms.

Powered by Virtual Airlines Manager [v2.6.2] Customized by Virtual NATO